sensor_id;sensor_type;location;lat;lon;timestamp;P1;durP1;ratioP1;P2;durP2;ratioP2
47860;SDS011;33620;52.340;5.984;2022-12-18T00:01:35;106.80;;;42.70;;
47860;SDS011;33620;52.340;5.984;2022-12-18T00:04:05;119.13;;;42.88;;
47860;SDS011;33620;52.340;5.984;2022-12-18T00:06:33;110.80;;;44.45;;
47860;SDS011;33620;52.340;5.984;2022-12-18T00:09:00;96.38;;;40.58;;
47860;SDS011;33620;52.340;5.984;2022-12-18T00:11:28;117.68;;;44.03;;
47860;SDS011;33620;52.340;5.984;2022-12-18T00:13:56;100.97;;;41.25;;
47860;SDS011;33620;52.340;5.984;2022-12-18T00:16:23;109.78;;;42.45;;
47860;SDS011;33620;52.340;5.984;2022-12-18T00:18:50;115.97;;;42.95;;
47860;SDS011;33620;52.340;5.984;2022-12-18T00:21:18;111.03;;;44.90;;
47860;SDS011;33620;52.340;5.984;2022-12-18T00:23:45;100.85;;;42.95;;
47860;SDS011;33620;52.340;5.984;2022-12-18T00:26:12;110.75;;;42.28;;
47860;SDS011;33620;52.340;5.984;2022-12-18T00:28:40;107.35;;;44.08;;
47860;SDS011;33620;52.340;5.984;2022-12-18T00:31:06;103.65;;;46.47;;
47860;SDS011;33620;52.340;5.984;2022-12-18T00:33:33;103.57;;;43.10;;
47860;SDS011;33620;52.340;5.984;2022-12-18T00:36:03;101.60;;;41.70;;
47860;SDS011;33620;52.340;5.984;2022-12-18T00:38:34;97.43;;;42.10;;
47860;SDS011;33620;52.340;5.984;2022-12-18T00:41:00;94.30;;;40.83;;
47860;SDS011;33620;52.340;5.984;2022-12-18T00:43:26;92.45;;;39.70;;
47860;SDS011;33620;52.340;5.984;2022-12-18T00:45:52;88.97;;;40.70;;
47860;SDS011;33620;52.340;5.984;2022-12-18T00:48:17;94.32;;;40.60;;
47860;SDS011;33620;52.340;5.984;2022-12-18T00:50:43;97.25;;;39.47;;
47860;SDS011;33620;52.340;5.984;2022-12-18T00:53:08;100.15;;;42.42;;
47860;SDS011;33620;52.340;5.984;2022-12-18T00:55:34;91.57;;;38.38;;
47860;SDS011;33620;52.340;5.984;2022-12-18T00:57:59;96.28;;;41.08;;
47860;SDS011;33620;52.340;5.984;2022-12-18T01:00:24;100.60;;;39.92;;
47860;SDS011;33620;52.340;5.984;2022-12-18T01:02:50;104.95;;;40.08;;
47860;SDS011;33620;52.340;5.984;2022-12-18T01:05:15;95.53;;;40.30;;
47860;SDS011;33620;52.340;5.984;2022-12-18T01:07:41;106.88;;;42.20;;
47860;SDS011;33620;52.340;5.984;2022-12-18T01:10:07;94.15;;;38.22;;
47860;SDS011;33620;52.340;5.984;2022-12-18T01:12:34;92.28;;;40.45;;
47860;SDS011;33620;52.340;5.984;2022-12-18T01:15:00;97.35;;;41.78;;
47860;SDS011;33620;52.340;5.984;2022-12-18T01:17:25;97.18;;;40.22;;
47860;SDS011;33620;52.340;5.984;2022-12-18T01:19:50;100.43;;;40.05;;
47860;SDS011;33620;52.340;5.984;2022-12-18T01:22:16;93.10;;;41.28;;
47860;SDS011;33620;52.340;5.984;2022-12-18T01:24:41;92.85;;;40.47;;
47860;SDS011;33620;52.340;5.984;2022-12-18T01:27:06;94.68;;;37.67;;
47860;SDS011;33620;52.340;5.984;2022-12-18T01:29:32;95.85;;;38.95;;
47860;SDS011;33620;52.340;5.984;2022-12-18T01:31:57;90.88;;;38.00;;
47860;SDS011;33620;52.340;5.984;2022-12-18T01:34:23;89.78;;;37.58;;
47860;SDS011;33620;52.340;5.984;2022-12-18T01:36:49;90.07;;;38.25;;
47860;SDS011;33620;52.340;5.984;2022-12-18T01:39:17;89.70;;;37.97;;
47860;SDS011;33620;52.340;5.984;2022-12-18T01:41:43;86.88;;;37.10;;
47860;SDS011;33620;52.340;5.984;2022-12-18T01:47:19;91.72;;;38.17;;
47860;SDS011;33620;52.340;5.984;2022-12-18T01:49:48;83.03;;;36.53;;
47860;SDS011;33620;52.340;5.984;2022-12-18T01:52:14;83.25;;;38.00;;
47860;SDS011;33620;52.340;5.984;2022-12-18T01:54:41;88.00;;;35.22;;
47860;SDS011;33620;52.340;5.984;2022-12-18T01:57:07;84.97;;;36.38;;
47860;SDS011;33620;52.340;5.984;2022-12-18T01:59:33;84.78;;;36.90;;
47860;SDS011;33620;52.340;5.984;2022-12-18T02:02:00;85.38;;;35.03;;
47860;SDS011;33620;52.340;5.984;2022-12-18T02:04:27;81.35;;;34.35;;
47860;SDS011;33620;52.340;5.984;2022-12-18T02:09:26;78.38;;;35.70;;
47860;SDS011;33620;52.340;5.984;2022-12-18T02:12:22;80.25;;;37.15;;
47860;SDS011;33620;52.340;5.984;2022-12-18T02:17:45;84.68;;;34.85;;
47860;SDS011;33620;52.340;5.984;2022-12-18T02:20:23;80.57;;;35.83;;
47860;SDS011;33620;52.340;5.984;2022-12-18T02:23:09;78.55;;;34.90;;
47860;SDS011;33620;52.340;5.984;2022-12-18T02:26:00;81.80;;;35.67;;
47860;SDS011;33620;52.340;5.984;2022-12-18T02:29:00;80.43;;;35.17;;
47860;SDS011;33620;52.340;5.984;2022-12-18T02:31:32;78.82;;;34.47;;
47860;SDS011;33620;52.340;5.984;2022-12-18T02:34:04;86.53;;;34.33;;
47860;SDS011;33620;52.340;5.984;2022-12-18T02:36:32;76.57;;;34.75;;
47860;SDS011;33620;52.340;5.984;2022-12-18T02:38:58;84.50;;;35.97;;
47860;SDS011;33620;52.340;5.984;2022-12-18T02:41:26;73.38;;;33.25;;
47860;SDS011;33620;52.340;5.984;2022-12-18T02:43:53;76.95;;;34.10;;
47860;SDS011;33620;52.340;5.984;2022-12-18T02:46:27;75.38;;;34.70;;
47860;SDS011;33620;52.340;5.984;2022-12-18T02:48:57;72.40;;;35.00;;
47860;SDS011;33620;52.340;5.984;2022-12-18T02:51:50;78.68;;;35.83;;
47860;SDS011;33620;52.340;5.984;2022-12-18T02:56:53;66.40;;;30.30;;
47860;SDS011;33620;52.340;5.984;2022-12-18T03:02:47;77.47;;;34.38;;
47860;SDS011;33620;52.340;5.984;2022-12-18T03:08:05;78.40;;;33.95;;
47860;SDS011;33620;52.340;5.984;2022-12-18T03:10:34;73.43;;;31.40;;
47860;SDS011;33620;52.340;5.984;2022-12-18T03:13:05;70.80;;;31.92;;
47860;SDS011;33620;52.340;5.984;2022-12-18T03:15:37;66.68;;;30.40;;
47860;SDS011;33620;52.340;5.984;2022-12-18T03:18:11;64.80;;;28.75;;
47860;SDS011;33620;52.340;5.984;2022-12-18T03:20:41;72.05;;;31.30;;
47860;SDS011;33620;52.340;5.984;2022-12-18T03:23:09;70.45;;;32.40;;
47860;SDS011;33620;52.340;5.984;2022-12-18T03:25:39;74.85;;;32.75;;
47860;SDS011;33620;52.340;5.984;2022-12-18T03:28:08;70.78;;;31.92;;
47860;SDS011;33620;52.340;5.984;2022-12-18T03:30:37;66.38;;;30.92;;
47860;SDS011;33620;52.340;5.984;2022-12-18T03:35:48;75.85;;;33.97;;
47860;SDS011;33620;52.340;5.984;2022-12-18T03:38:14;74.35;;;30.70;;
47860;SDS011;33620;52.340;5.984;2022-12-18T03:43:16;77.18;;;31.95;;
47860;SDS011;33620;52.340;5.984;2022-12-18T03:45:52;68.60;;;28.77;;
47860;SDS011;33620;52.340;5.984;2022-12-18T03:48:31;66.72;;;28.80;;
47860;SDS011;33620;52.340;5.984;2022-12-18T03:51:10;60.08;;;28.98;;
47860;SDS011;33620;52.340;5.984;2022-12-18T03:53:59;74.43;;;32.25;;
47860;SDS011;33620;52.340;5.984;2022-12-18T03:56:28;68.60;;;29.85;;
47860;SDS011;33620;52.340;5.984;2022-12-18T03:58:57;62.67;;;28.85;;
47860;SDS011;33620;52.340;5.984;2022-12-18T04:01:26;62.22;;;28.38;;
47860;SDS011;33620;52.340;5.984;2022-12-18T04:03:58;65.68;;;30.95;;
47860;SDS011;33620;52.340;5.984;2022-12-18T04:06:25;73.25;;;30.98;;
47860;SDS011;33620;52.340;5.984;2022-12-18T04:08:51;65.90;;;29.98;;
47860;SDS011;33620;52.340;5.984;2022-12-18T04:11:17;67.40;;;31.42;;
47860;SDS011;33620;52.340;5.984;2022-12-18T04:13:42;66.53;;;31.02;;
47860;SDS011;33620;52.340;5.984;2022-12-18T04:16:08;65.88;;;29.02;;
47860;SDS011;33620;52.340;5.984;2022-12-18T04:18:34;65.80;;;28.95;;
47860;SDS011;33620;52.340;5.984;2022-12-18T04:20:59;67.97;;;29.38;;
47860;SDS011;33620;52.340;5.984;2022-12-18T04:23:25;60.85;;;28.65;;
47860;SDS011;33620;52.340;5.984;2022-12-18T04:25:50;67.20;;;30.38;;
47860;SDS011;33620;52.340;5.984;2022-12-18T04:28:16;64.47;;;28.52;;
47860;SDS011;33620;52.340;5.984;2022-12-18T04:30:41;66.57;;;30.40;;
47860;SDS011;33620;52.340;5.984;2022-12-18T04:33:10;65.95;;;30.77;;
47860;SDS011;33620;52.340;5.984;2022-12-18T04:35:38;70.20;;;30.90;;
47860;SDS011;33620;52.340;5.984;2022-12-18T04:38:05;61.17;;;27.85;;
47860;SDS011;33620;52.340;5.984;2022-12-18T04:40:31;64.00;;;28.23;;
47860;SDS011;33620;52.340;5.984;2022-12-18T04:42:56;60.40;;;27.65;;
47860;SDS011;33620;52.340;5.984;2022-12-18T04:45:22;57.13;;;27.65;;
47860;SDS011;33620;52.340;5.984;2022-12-18T04:47:47;60.45;;;27.70;;
47860;SDS011;33620;52.340;5.984;2022-12-18T04:50:12;66.50;;;29.70;;
47860;SDS011;33620;52.340;5.984;2022-12-18T04:52:38;55.45;;;28.00;;
47860;SDS011;33620;52.340;5.984;2022-12-18T04:55:03;66.40;;;28.42;;
47860;SDS011;33620;52.340;5.984;2022-12-18T04:57:29;70.55;;;28.77;;
47860;SDS011;33620;52.340;5.984;2022-12-18T04:59:54;67.72;;;28.70;;
47860;SDS011;33620;52.340;5.984;2022-12-18T05:02:20;62.88;;;28.70;;
47860;SDS011;33620;52.340;5.984;2022-12-18T05:04:45;57.58;;;27.60;;
47860;SDS011;33620;52.340;5.984;2022-12-18T05:07:11;64.60;;;27.17;;
47860;SDS011;33620;52.340;5.984;2022-12-18T05:09:36;61.72;;;28.08;;
47860;SDS011;33620;52.340;5.984;2022-12-18T05:12:01;56.70;;;26.40;;
47860;SDS011;33620;52.340;5.984;2022-12-18T05:14:27;61.30;;;27.15;;
47860;SDS011;33620;52.340;5.984;2022-12-18T05:16:54;56.80;;;25.83;;
47860;SDS011;33620;52.340;5.984;2022-12-18T05:19:19;66.63;;;28.92;;
47860;SDS011;33620;52.340;5.984;2022-12-18T05:21:44;61.63;;;27.95;;
47860;SDS011;33620;52.340;5.984;2022-12-18T05:24:10;62.25;;;28.63;;
47860;SDS011;33620;52.340;5.984;2022-12-18T05:26:35;65.60;;;29.48;;
47860;SDS011;33620;52.340;5.984;2022-12-18T05:29:01;63.42;;;28.52;;
47860;SDS011;33620;52.340;5.984;2022-12-18T05:31:26;60.35;;;27.13;;
47860;SDS011;33620;52.340;5.984;2022-12-18T05:33:51;61.83;;;27.48;;
47860;SDS011;33620;52.340;5.984;2022-12-18T05:36:17;60.25;;;26.38;;
47860;SDS011;33620;52.340;5.984;2022-12-18T05:38:42;63.00;;;26.40;;
47860;SDS011;33620;52.340;5.984;2022-12-18T05:41:08;57.72;;;25.48;;
47860;SDS011;33620;52.340;5.984;2022-12-18T05:43:35;59.72;;;27.08;;
47860;SDS011;33620;52.340;5.984;2022-12-18T05:46:05;56.58;;;27.02;;
47860;SDS011;33620;52.340;5.984;2022-12-18T05:48:32;59.60;;;26.45;;
47860;SDS011;33620;52.340;5.984;2022-12-18T05:51:03;53.70;;;25.95;;
47860;SDS011;33620;52.340;5.984;2022-12-18T05:53:30;52.47;;;26.42;;
47860;SDS011;33620;52.340;5.984;2022-12-18T05:55:59;62.65;;;27.33;;
47860;SDS011;33620;52.340;5.984;2022-12-18T05:58:26;51.05;;;24.52;;
47860;SDS011;33620;52.340;5.984;2022-12-18T06:00:51;57.28;;;24.85;;
47860;SDS011;33620;52.340;5.984;2022-12-18T06:03:16;55.33;;;25.75;;
47860;SDS011;33620;52.340;5.984;2022-12-18T06:05:43;51.15;;;24.95;;
47860;SDS011;33620;52.340;5.984;2022-12-18T06:08:10;62.58;;;27.02;;
47860;SDS011;33620;52.340;5.984;2022-12-18T06:10:36;52.47;;;23.75;;
47860;SDS011;33620;52.340;5.984;2022-12-18T06:13:02;50.50;;;23.83;;
47860;SDS011;33620;52.340;5.984;2022-12-18T06:15:27;51.17;;;22.58;;
47860;SDS011;33620;52.340;5.984;2022-12-18T06:17:53;50.70;;;23.40;;
47860;SDS011;33620;52.340;5.984;2022-12-18T06:20:18;54.45;;;24.60;;
47860;SDS011;33620;52.340;5.984;2022-12-18T06:22:44;52.83;;;24.02;;
47860;SDS011;33620;52.340;5.984;2022-12-18T06:25:12;52.35;;;23.65;;
47860;SDS011;33620;52.340;5.984;2022-12-18T06:27:38;45.92;;;23.45;;
47860;SDS011;33620;52.340;5.984;2022-12-18T06:30:04;55.40;;;25.45;;
47860;SDS011;33620;52.340;5.984;2022-12-18T06:32:29;52.03;;;23.95;;
47860;SDS011;33620;52.340;5.984;2022-12-18T06:34:55;54.08;;;26.05;;
47860;SDS011;33620;52.340;5.984;2022-12-18T06:37:21;52.92;;;24.55;;
47860;SDS011;33620;52.340;5.984;2022-12-18T06:39:49;51.90;;;25.58;;
47860;SDS011;33620;52.340;5.984;2022-12-18T06:42:15;48.40;;;22.95;;
47860;SDS011;33620;52.340;5.984;2022-12-18T06:44:40;57.75;;;25.55;;
47860;SDS011;33620;52.340;5.984;2022-12-18T06:47:05;54.20;;;24.10;;
47860;SDS011;33620;52.340;5.984;2022-12-18T06:49:31;49.40;;;23.73;;
47860;SDS011;33620;52.340;5.984;2022-12-18T06:51:56;51.17;;;23.33;;
47860;SDS011;33620;52.340;5.984;2022-12-18T06:54:22;52.35;;;24.52;;
47860;SDS011;33620;52.340;5.984;2022-12-18T06:56:47;59.85;;;25.33;;
47860;SDS011;33620;52.340;5.984;2022-12-18T06:59:12;44.95;;;21.65;;
47860;SDS011;33620;52.340;5.984;2022-12-18T07:01:39;46.60;;;22.88;;
47860;SDS011;33620;52.340;5.984;2022-12-18T07:04:05;50.83;;;23.75;;
47860;SDS011;33620;52.340;5.984;2022-12-18T07:06:30;47.10;;;22.25;;
47860;SDS011;33620;52.340;5.984;2022-12-18T07:08:55;50.05;;;22.70;;
47860;SDS011;33620;52.340;5.984;2022-12-18T07:11:21;46.22;;;21.92;;
47860;SDS011;33620;52.340;5.984;2022-12-18T07:13:47;39.72;;;21.85;;
47860;SDS011;33620;52.340;5.984;2022-12-18T07:16:13;40.50;;;19.38;;
47860;SDS011;33620;52.340;5.984;2022-12-18T07:18:40;47.35;;;21.25;;
47860;SDS011;33620;52.340;5.984;2022-12-18T07:21:07;48.85;;;22.42;;
47860;SDS011;33620;52.340;5.984;2022-12-18T07:23:34;44.45;;;21.20;;
47860;SDS011;33620;52.340;5.984;2022-12-18T07:26:04;44.92;;;21.15;;
47860;SDS011;33620;52.340;5.984;2022-12-18T07:28:31;50.33;;;23.23;;
47860;SDS011;33620;52.340;5.984;2022-12-18T07:30:57;49.60;;;22.75;;
47860;SDS011;33620;52.340;5.984;2022-12-18T07:33:27;44.22;;;22.23;;
47860;SDS011;33620;52.340;5.984;2022-12-18T07:35:52;42.90;;;21.10;;
47860;SDS011;33620;52.340;5.984;2022-12-18T07:38:17;36.45;;;18.02;;
47860;SDS011;33620;52.340;5.984;2022-12-18T07:40:43;43.63;;;20.65;;
47860;SDS011;33620;52.340;5.984;2022-12-18T07:43:08;40.45;;;19.52;;
47860;SDS011;33620;52.340;5.984;2022-12-18T07:45:33;39.35;;;19.27;;
47860;SDS011;33620;52.340;5.984;2022-12-18T07:47:59;41.85;;;20.17;;
47860;SDS011;33620;52.340;5.984;2022-12-18T07:50:24;46.42;;;21.58;;
47860;SDS011;33620;52.340;5.984;2022-12-18T07:52:49;38.95;;;18.77;;
47860;SDS011;33620;52.340;5.984;2022-12-18T07:55:15;38.88;;;19.48;;
47860;SDS011;33620;52.340;5.984;2022-12-18T07:57:40;45.83;;;20.00;;
47860;SDS011;33620;52.340;5.984;2022-12-18T08:00:06;42.97;;;19.70;;
47860;SDS011;33620;52.340;5.984;2022-12-18T08:02:32;40.47;;;20.77;;
47860;SDS011;33620;52.340;5.984;2022-12-18T08:04:57;39.88;;;20.45;;
47860;SDS011;33620;52.340;5.984;2022-12-18T08:07:23;41.20;;;19.20;;
47860;SDS011;33620;52.340;5.984;2022-12-18T08:09:48;41.67;;;20.65;;
47860;SDS011;33620;52.340;5.984;2022-12-18T08:12:14;43.88;;;19.50;;
47860;SDS011;33620;52.340;5.984;2022-12-18T08:14:39;42.03;;;19.63;;
47860;SDS011;33620;52.340;5.984;2022-12-18T08:17:04;40.45;;;18.65;;
47860;SDS011;33620;52.340;5.984;2022-12-18T08:19:30;39.92;;;19.30;;
47860;SDS011;33620;52.340;5.984;2022-12-18T08:21:55;41.53;;;19.83;;
47860;SDS011;33620;52.340;5.984;2022-12-18T08:24:21;37.25;;;18.70;;
47860;SDS011;33620;52.340;5.984;2022-12-18T08:26:47;37.72;;;18.45;;
47860;SDS011;33620;52.340;5.984;2022-12-18T08:29:12;41.33;;;19.90;;
47860;SDS011;33620;52.340;5.984;2022-12-18T08:31:38;41.72;;;20.63;;
47860;SDS011;33620;52.340;5.984;2022-12-18T08:34:03;46.05;;;21.25;;
47860;SDS011;33620;52.340;5.984;2022-12-18T08:36:28;41.53;;;19.13;;
47860;SDS011;33620;52.340;5.984;2022-12-18T08:38:54;39.45;;;18.85;;
47860;SDS011;33620;52.340;5.984;2022-12-18T08:41:19;40.05;;;19.38;;
47860;SDS011;33620;52.340;5.984;2022-12-18T08:43:45;41.90;;;18.38;;
47860;SDS011;33620;52.340;5.984;2022-12-18T08:46:32;37.25;;;18.08;;
47860;SDS011;33620;52.340;5.984;2022-12-18T08:49:02;33.78;;;16.30;;
47860;SDS011;33620;52.340;5.984;2022-12-18T08:51:28;44.05;;;19.00;;
47860;SDS011;33620;52.340;5.984;2022-12-18T08:53:54;35.58;;;17.23;;
47860;SDS011;33620;52.340;5.984;2022-12-18T08:56:19;38.60;;;18.20;;
47860;SDS011;33620;52.340;5.984;2022-12-18T08:58:45;36.67;;;17.17;;
47860;SDS011;33620;52.340;5.984;2022-12-18T09:01:10;36.20;;;17.92;;
47860;SDS011;33620;52.340;5.984;2022-12-18T09:03:37;37.78;;;18.02;;
47860;SDS011;33620;52.340;5.984;2022-12-18T09:06:04;36.35;;;17.20;;
47860;SDS011;33620;52.340;5.984;2022-12-18T09:08:30;36.05;;;17.20;;
47860;SDS011;33620;52.340;5.984;2022-12-18T09:10:55;34.65;;;16.67;;
47860;SDS011;33620;52.340;5.984;2022-12-18T09:13:21;38.58;;;16.58;;
47860;SDS011;33620;52.340;5.984;2022-12-18T09:15:48;36.35;;;17.27;;
47860;SDS011;33620;52.340;5.984;2022-12-18T09:18:17;34.72;;;16.50;;
47860;SDS011;33620;52.340;5.984;2022-12-18T09:20:43;37.58;;;18.63;;
47860;SDS011;33620;52.340;5.984;2022-12-18T09:23:09;37.33;;;16.25;;
47860;SDS011;33620;52.340;5.984;2022-12-18T09:25:35;38.15;;;17.05;;
47860;SDS011;33620;52.340;5.984;2022-12-18T09:28:02;38.20;;;18.65;;
47860;SDS011;33620;52.340;5.984;2022-12-18T09:30:29;37.05;;;16.90;;
47860;SDS011;33620;52.340;5.984;2022-12-18T09:32:55;33.40;;;18.65;;
47860;SDS011;33620;52.340;5.984;2022-12-18T09:35:21;41.25;;;18.55;;
47860;SDS011;33620;52.340;5.984;2022-12-18T09:37:46;40.38;;;19.90;;
47860;SDS011;33620;52.340;5.984;2022-12-18T09:40:19;35.03;;;17.95;;
47860;SDS011;33620;52.340;5.984;2022-12-18T09:42:50;35.67;;;17.75;;
47860;SDS011;33620;52.340;5.984;2022-12-18T09:45:22;36.88;;;19.52;;
47860;SDS011;33620;52.340;5.984;2022-12-18T09:47:49;37.67;;;17.45;;
47860;SDS011;33620;52.340;5.984;2022-12-18T09:50:30;40.08;;;18.52;;
47860;SDS011;33620;52.340;5.984;2022-12-18T09:52:59;36.13;;;16.73;;
47860;SDS011;33620;52.340;5.984;2022-12-18T09:55:37;36.35;;;18.63;;
47860;SDS011;33620;52.340;5.984;2022-12-18T09:58:06;32.63;;;15.65;;
47860;SDS011;33620;52.340;5.984;2022-12-18T10:00:40;32.65;;;16.80;;
47860;SDS011;33620;52.340;5.984;2022-12-18T10:03:09;35.75;;;17.45;;
47860;SDS011;33620;52.340;5.984;2022-12-18T10:05:38;35.05;;;17.45;;
47860;SDS011;33620;52.340;5.984;2022-12-18T10:11:34;33.92;;;15.80;;
47860;SDS011;33620;52.340;5.984;2022-12-18T10:14:24;36.17;;;16.20;;
47860;SDS011;33620;52.340;5.984;2022-12-18T10:20:05;30.90;;;15.32;;
47860;SDS011;33620;52.340;5.984;2022-12-18T10:22:47;31.60;;;15.20;;
47860;SDS011;33620;52.340;5.984;2022-12-18T10:25:23;32.70;;;14.57;;
47860;SDS011;33620;52.340;5.984;2022-12-18T10:28:14;30.65;;;15.02;;
47860;SDS011;33620;52.340;5.984;2022-12-18T10:30:42;31.42;;;14.35;;
47860;SDS011;33620;52.340;5.984;2022-12-18T10:33:21;28.67;;;14.68;;
47860;SDS011;33620;52.340;5.984;2022-12-18T10:35:51;30.63;;;14.23;;
47860;SDS011;33620;52.340;5.984;2022-12-18T10:45:58;31.65;;;13.77;;
47860;SDS011;33620;52.340;5.984;2022-12-18T10:48:54;27.27;;;13.13;;
47860;SDS011;33620;52.340;5.984;2022-12-18T10:51:29;30.25;;;13.65;;
47860;SDS011;33620;52.340;5.984;2022-12-18T10:56:31;27.65;;;12.98;;
47860;SDS011;33620;52.340;5.984;2022-12-18T11:01:48;31.20;;;13.65;;
47860;SDS011;33620;52.340;5.984;2022-12-18T11:07:06;31.30;;;13.85;;
47860;SDS011;33620;52.340;5.984;2022-12-18T11:09:34;26.48;;;12.50;;
47860;SDS011;33620;52.340;5.984;2022-12-18T11:12:02;28.85;;;11.98;;
47860;SDS011;33620;52.340;5.984;2022-12-18T11:14:32;28.92;;;13.63;;
47860;SDS011;33620;52.340;5.984;2022-12-18T11:17:16;26.42;;;12.38;;
47860;SDS011;33620;52.340;5.984;2022-12-18T11:19:57;25.40;;;12.60;;
47860;SDS011;33620;52.340;5.984;2022-12-18T11:22:28;28.23;;;12.45;;
47860;SDS011;33620;52.340;5.984;2022-12-18T11:24:59;24.30;;;12.05;;
47860;SDS011;33620;52.340;5.984;2022-12-18T11:27:27;29.27;;;12.38;;
47860;SDS011;33620;52.340;5.984;2022-12-18T11:30:06;24.92;;;11.60;;
47860;SDS011;33620;52.340;5.984;2022-12-18T11:32:38;23.40;;;10.52;;
47860;SDS011;33620;52.340;5.984;2022-12-18T11:37:46;24.17;;;11.40;;
47860;SDS011;33620;52.340;5.984;2022-12-18T11:40:19;27.77;;;10.88;;
47860;SDS011;33620;52.340;5.984;2022-12-18T11:46:24;25.13;;;11.50;;
47860;SDS011;33620;52.340;5.984;2022-12-18T11:48:37;27.80;;;11.93;;
47860;SDS011;33620;52.340;5.984;2022-12-18T11:51:15;23.95;;;10.93;;
47860;SDS011;33620;52.340;5.984;2022-12-18T11:53:54;25.55;;;11.18;;
47860;SDS011;33620;52.340;5.984;2022-12-18T11:59:15;24.90;;;11.80;;
47860;SDS011;33620;52.340;5.984;2022-12-18T12:01:52;22.70;;;10.95;;
47860;SDS011;33620;52.340;5.984;2022-12-18T12:07:21;22.83;;;9.98;;
47860;SDS011;33620;52.340;5.984;2022-12-18T12:18:11;22.77;;;10.80;;
47860;SDS011;33620;52.340;5.984;2022-12-18T12:20:42;24.30;;;10.50;;
47860;SDS011;33620;52.340;5.984;2022-12-18T12:26:40;23.50;;;10.95;;
47860;SDS011;33620;52.340;5.984;2022-12-18T12:40:10;27.13;;;12.35;;
47860;SDS011;33620;52.340;5.984;2022-12-18T12:42:39;26.27;;;11.93;;
47860;SDS011;33620;52.340;5.984;2022-12-18T12:45:30;23.80;;;11.10;;
47860;SDS011;33620;52.340;5.984;2022-12-18T12:48:02;25.20;;;11.85;;
47860;SDS011;33620;52.340;5.984;2022-12-18T12:50:30;24.40;;;10.80;;
47860;SDS011;33620;52.340;5.984;2022-12-18T12:53:00;27.38;;;12.95;;
47860;SDS011;33620;52.340;5.984;2022-12-18T12:55:30;26.20;;;12.30;;
47860;SDS011;33620;52.340;5.984;2022-12-18T12:57:57;28.92;;;12.88;;
47860;SDS011;33620;52.340;5.984;2022-12-18T13:03:07;23.70;;;12.00;;
47860;SDS011;33620;52.340;5.984;2022-12-18T13:05:51;27.20;;;12.18;;
47860;SDS011;33620;52.340;5.984;2022-12-18T13:08:25;26.33;;;10.88;;
47860;SDS011;33620;52.340;5.984;2022-12-18T13:10:53;24.98;;;11.38;;
47860;SDS011;33620;52.340;5.984;2022-12-18T13:13:54;22.85;;;11.25;;
47860;SDS011;33620;52.340;5.984;2022-12-18T13:16:21;26.73;;;12.77;;
47860;SDS011;33620;52.340;5.984;2022-12-18T13:18:49;22.15;;;10.35;;
47860;SDS011;33620;52.340;5.984;2022-12-18T13:21:27;23.75;;;11.60;;
47860;SDS011;33620;52.340;5.984;2022-12-18T13:24:13;24.33;;;11.50;;
47860;SDS011;33620;52.340;5.984;2022-12-18T13:26:47;26.15;;;12.57;;
47860;SDS011;33620;52.340;5.984;2022-12-18T13:29:14;23.05;;;11.32;;
47860;SDS011;33620;52.340;5.984;2022-12-18T13:32:10;23.35;;;11.95;;
47860;SDS011;33620;52.340;5.984;2022-12-18T13:34:45;22.20;;;10.77;;
47860;SDS011;33620;52.340;5.984;2022-12-18T13:39:58;25.00;;;10.82;;
47860;SDS011;33620;52.340;5.984;2022-12-18T13:48:03;27.38;;;11.80;;
47860;SDS011;33620;52.340;5.984;2022-12-18T13:50:28;21.42;;;10.30;;
47860;SDS011;33620;52.340;5.984;2022-12-18T13:52:54;24.13;;;12.10;;
47860;SDS011;33620;52.340;5.984;2022-12-18T13:55:19;23.25;;;10.95;;
47860;SDS011;33620;52.340;5.984;2022-12-18T13:57:47;20.08;;;10.05;;
47860;SDS011;33620;52.340;5.984;2022-12-18T14:02:44;23.73;;;10.82;;
47860;SDS011;33620;52.340;5.984;2022-12-18T14:08:06;25.15;;;11.73;;
47860;SDS011;33620;52.340;5.984;2022-12-18T14:10:34;23.40;;;10.93;;
47860;SDS011;33620;52.340;5.984;2022-12-18T14:13:05;28.50;;;11.57;;
47860;SDS011;33620;52.340;5.984;2022-12-18T14:15:42;24.27;;;11.45;;
47860;SDS011;33620;52.340;5.984;2022-12-18T14:18:22;22.85;;;11.35;;
47860;SDS011;33620;52.340;5.984;2022-12-18T14:20:49;26.60;;;12.23;;
47860;SDS011;33620;52.340;5.984;2022-12-18T14:23:36;25.98;;;11.70;;
47860;SDS011;33620;52.340;5.984;2022-12-18T14:26:18;24.23;;;11.13;;
47860;SDS011;33620;52.340;5.984;2022-12-18T14:28:49;23.92;;;11.13;;
47860;SDS011;33620;52.340;5.984;2022-12-18T14:31:18;24.63;;;11.45;;
47860;SDS011;33620;52.340;5.984;2022-12-18T14:33:44;21.83;;;10.30;;
47860;SDS011;33620;52.340;5.984;2022-12-18T14:36:17;25.40;;;11.25;;
47860;SDS011;33620;52.340;5.984;2022-12-18T14:38:48;24.30;;;11.43;;
47860;SDS011;33620;52.340;5.984;2022-12-18T14:41:16;23.38;;;11.07;;
47860;SDS011;33620;52.340;5.984;2022-12-18T14:43:43;24.88;;;11.70;;
47860;SDS011;33620;52.340;5.984;2022-12-18T14:48:53;25.15;;;10.95;;
47860;SDS011;33620;52.340;5.984;2022-12-18T14:51:20;25.83;;;11.35;;
47860;SDS011;33620;52.340;5.984;2022-12-18T14:53:54;27.30;;;11.25;;
47860;SDS011;33620;52.340;5.984;2022-12-18T14:56:21;22.27;;;10.50;;
47860;SDS011;33620;52.340;5.984;2022-12-18T14:58:54;27.02;;;12.10;;
47860;SDS011;33620;52.340;5.984;2022-12-18T15:01:37;24.60;;;11.32;;
47860;SDS011;33620;52.340;5.984;2022-12-18T15:09:31;30.48;;;12.30;;
47860;SDS011;33620;52.340;5.984;2022-12-18T15:11:57;24.02;;;11.23;;
47860;SDS011;33620;52.340;5.984;2022-12-18T15:14:34;24.65;;;10.88;;
47860;SDS011;33620;52.340;5.984;2022-12-18T15:17:17;22.25;;;10.10;;
47860;SDS011;33620;52.340;5.984;2022-12-18T15:19:44;24.90;;;10.57;;
47860;SDS011;33620;52.340;5.984;2022-12-18T15:22:27;26.08;;;11.00;;
47860;SDS011;33620;52.340;5.984;2022-12-18T15:24:55;23.27;;;11.98;;
47860;SDS011;33620;52.340;5.984;2022-12-18T15:27:29;25.88;;;11.13;;
47860;SDS011;33620;52.340;5.984;2022-12-18T15:32:35;24.58;;;11.20;;
47860;SDS011;33620;52.340;5.984;2022-12-18T15:37:35;24.95;;;12.10;;
47860;SDS011;33620;52.340;5.984;2022-12-18T15:40:01;25.98;;;12.50;;
47860;SDS011;33620;52.340;5.984;2022-12-18T15:42:27;25.00;;;12.57;;
47860;SDS011;33620;52.340;5.984;2022-12-18T15:45:12;23.63;;;11.82;;
47860;SDS011;33620;52.340;5.984;2022-12-18T15:47:38;27.05;;;12.55;;
47860;SDS011;33620;52.340;5.984;2022-12-18T15:50:04;28.23;;;12.52;;
47860;SDS011;33620;52.340;5.984;2022-12-18T15:52:32;24.33;;;11.98;;
47860;SDS011;33620;52.340;5.984;2022-12-18T15:55:15;23.50;;;11.02;;
47860;SDS011;33620;52.340;5.984;2022-12-18T15:58:00;28.52;;;12.70;;
47860;SDS011;33620;52.340;5.984;2022-12-18T16:00:25;23.15;;;10.68;;
47860;SDS011;33620;52.340;5.984;2022-12-18T16:02:51;25.00;;;11.55;;
47860;SDS011;33620;52.340;5.984;2022-12-18T16:05:17;26.55;;;13.77;;
47860;SDS011;33620;52.340;5.984;2022-12-18T16:07:45;24.67;;;12.75;;
47860;SDS011;33620;52.340;5.984;2022-12-18T16:10:11;27.00;;;12.07;;
47860;SDS011;33620;52.340;5.984;2022-12-18T16:12:37;25.75;;;11.70;;
47860;SDS011;33620;52.340;5.984;2022-12-18T16:15:02;29.45;;;13.32;;
47860;SDS011;33620;52.340;5.984;2022-12-18T16:17:29;21.55;;;10.27;;
47860;SDS011;33620;52.340;5.984;2022-12-18T16:19:54;26.73;;;12.95;;
47860;SDS011;33620;52.340;5.984;2022-12-18T16:22:24;23.38;;;11.57;;